sensor_id;sensor_type;location;lat;lon;timestamp;P1;durP1;ratioP1;P2;durP2;ratioP2
1613;SDS011;800;48.824;9.346;2022-10-23T00:02:23;8.00;;;3.00;;
1613;SDS011;800;48.824;9.346;2022-10-23T00:04:49;4.63;;;3.10;;
1613;SDS011;800;48.824;9.346;2022-10-23T00:07:16;5.37;;;3.00;;
1613;SDS011;800;48.824;9.346;2022-10-23T00:09:42;4.13;;;3.13;;
1613;SDS011;800;48.824;9.346;2022-10-23T00:12:07;4.93;;;3.03;;
1613;SDS011;800;48.824;9.346;2022-10-23T00:14:33;3.53;;;3.13;;
1613;SDS011;800;48.824;9.346;2022-10-23T00:16:58;5.87;;;3.20;;
1613;SDS011;800;48.824;9.346;2022-10-23T00:19:24;7.07;;;3.20;;
1613;SDS011;800;48.824;9.346;2022-10-23T00:21:50;5.67;;;3.30;;
1613;SDS011;800;48.824;9.346;2022-10-23T00:24:15;3.10;;;2.80;;
1613;SDS011;800;48.824;9.346;2022-10-23T00:26:41;4.53;;;3.10;;
1613;SDS011;800;48.824;9.346;2022-10-23T00:29:07;4.80;;;3.57;;
1613;SDS011;800;48.824;9.346;2022-10-23T00:31:34;8.50;;;3.23;;
1613;SDS011;800;48.824;9.346;2022-10-23T00:33:59;4.03;;;3.30;;
1613;SDS011;800;48.824;9.346;2022-10-23T00:36:25;5.50;;;3.30;;
1613;SDS011;800;48.824;9.346;2022-10-23T00:38:51;10.20;;;4.57;;
1613;SDS011;800;48.824;9.346;2022-10-23T00:41:18;10.13;;;4.57;;
1613;SDS011;800;48.824;9.346;2022-10-23T00:43:53;4.50;;;4.03;;
1613;SDS011;800;48.824;9.346;2022-10-23T00:46:21;7.10;;;3.70;;
1613;SDS011;800;48.824;9.346;2022-10-23T00:48:47;7.50;;;4.00;;
1613;SDS011;800;48.824;9.346;2022-10-23T00:51:12;10.50;;;4.17;;
1613;SDS011;800;48.824;9.346;2022-10-23T00:53:38;13.63;;;4.50;;
1613;SDS011;800;48.824;9.346;2022-10-23T00:56:04;4.40;;;4.00;;
1613;SDS011;800;48.824;9.346;2022-10-23T00:58:29;6.73;;;3.60;;
1613;SDS011;800;48.824;9.346;2022-10-23T01:00:55;4.03;;;3.70;;
1613;SDS011;800;48.824;9.346;2022-10-23T01:03:25;5.93;;;4.37;;
1613;SDS011;800;48.824;9.346;2022-10-23T01:08:37;7.07;;;3.80;;
1613;SDS011;800;48.824;9.346;2022-10-23T01:11:12;5.90;;;3.57;;
1613;SDS011;800;48.824;9.346;2022-10-23T01:16:17;5.97;;;3.50;;
1613;SDS011;800;48.824;9.346;2022-10-23T01:18:57;11.23;;;3.70;;
1613;SDS011;800;48.824;9.346;2022-10-23T01:21:38;7.83;;;4.47;;
1613;SDS011;800;48.824;9.346;2022-10-23T01:27:21;4.90;;;3.30;;
1613;SDS011;800;48.824;9.346;2022-10-23T01:32:50;9.00;;;3.17;;
1613;SDS011;800;48.824;9.346;2022-10-23T01:38:05;5.90;;;3.80;;
1613;SDS011;800;48.824;9.346;2022-10-23T01:43:10;6.10;;;3.47;;
1613;SDS011;800;48.824;9.346;2022-10-23T01:45:41;3.57;;;3.23;;
1613;SDS011;800;48.824;9.346;2022-10-23T01:48:11;6.33;;;3.83;;
1613;SDS011;800;48.824;9.346;2022-10-23T01:50:40;6.03;;;3.63;;
1613;SDS011;800;48.824;9.346;2022-10-23T01:53:07;4.17;;;3.40;;
1613;SDS011;800;48.824;9.346;2022-10-23T01:55:33;7.20;;;3.40;;
1613;SDS011;800;48.824;9.346;2022-10-23T01:58:02;5.57;;;3.37;;
1613;SDS011;800;48.824;9.346;2022-10-23T02:00:31;5.20;;;4.43;;
1613;SDS011;800;48.824;9.346;2022-10-23T02:02:57;5.93;;;3.10;;
1613;SDS011;800;48.824;9.346;2022-10-23T02:05:27;5.93;;;3.40;;
1613;SDS011;800;48.824;9.346;2022-10-23T02:07:53;8.37;;;3.20;;
1613;SDS011;800;48.824;9.346;2022-10-23T02:10:19;6.00;;;3.40;;
1613;SDS011;800;48.824;9.346;2022-10-23T02:15:35;4.13;;;3.27;;
1613;SDS011;800;48.824;9.346;2022-10-23T02:18:08;6.83;;;3.40;;
1613;SDS011;800;48.824;9.346;2022-10-23T02:20:51;4.50;;;2.60;;
1613;SDS011;800;48.824;9.346;2022-10-23T02:23:37;3.93;;;2.87;;
1613;SDS011;800;48.824;9.346;2022-10-23T02:26:37;4.67;;;3.70;;
1613;SDS011;800;48.824;9.346;2022-10-23T02:29:19;5.40;;;3.73;;
1613;SDS011;800;48.824;9.346;2022-10-23T02:31:54;7.47;;;3.30;;
1613;SDS011;800;48.824;9.346;2022-10-23T02:34:19;4.20;;;3.50;;
1613;SDS011;800;48.824;9.346;2022-10-23T02:36:45;4.60;;;3.70;;
1613;SDS011;800;48.824;9.346;2022-10-23T02:39:11;8.93;;;4.00;;
1613;SDS011;800;48.824;9.346;2022-10-23T02:41:38;5.40;;;3.20;;
1613;SDS011;800;48.824;9.346;2022-10-23T02:57:26;6.17;;;3.57;;
1613;SDS011;800;48.824;9.346;2022-10-23T03:00:08;3.93;;;3.27;;
1613;SDS011;800;48.824;9.346;2022-10-23T03:02:45;9.30;;;3.93;;
1613;SDS011;800;48.824;9.346;2022-10-23T03:05:22;3.70;;;3.40;;
1613;SDS011;800;48.824;9.346;2022-10-23T03:07:52;8.53;;;3.17;;
1613;SDS011;800;48.824;9.346;2022-10-23T03:10:18;4.53;;;3.30;;
1613;SDS011;800;48.824;9.346;2022-10-23T03:12:44;5.50;;;3.07;;
1613;SDS011;800;48.824;9.346;2022-10-23T03:15:11;7.17;;;2.87;;
1613;SDS011;800;48.824;9.346;2022-10-23T03:17:36;5.77;;;3.70;;
1613;SDS011;800;48.824;9.346;2022-10-23T03:20:03;3.97;;;3.30;;
1613;SDS011;800;48.824;9.346;2022-10-23T03:22:29;5.63;;;2.87;;
1613;SDS011;800;48.824;9.346;2022-10-23T03:24:55;9.10;;;3.00;;
1613;SDS011;800;48.824;9.346;2022-10-23T03:27:21;5.43;;;2.87;;
1613;SDS011;800;48.824;9.346;2022-10-23T03:29:46;5.57;;;2.70;;
1613;SDS011;800;48.824;9.346;2022-10-23T03:32:12;6.53;;;3.57;;
1613;SDS011;800;48.824;9.346;2022-10-23T03:34:37;3.73;;;3.10;;
1613;SDS011;800;48.824;9.346;2022-10-23T03:37:03;5.30;;;3.50;;
1613;SDS011;800;48.824;9.346;2022-10-23T03:39:28;3.93;;;3.57;;
1613;SDS011;800;48.824;9.346;2022-10-23T03:41:54;6.27;;;3.67;;
1613;SDS011;800;48.824;9.346;2022-10-23T03:44:19;4.20;;;3.07;;
1613;SDS011;800;48.824;9.346;2022-10-23T03:46:45;4.73;;;3.00;;
1613;SDS011;800;48.824;9.346;2022-10-23T03:49:11;4.10;;;3.40;;
1613;SDS011;800;48.824;9.346;2022-10-23T03:51:36;4.80;;;2.97;;
1613;SDS011;800;48.824;9.346;2022-10-23T03:54:05;3.50;;;3.20;;
1613;SDS011;800;48.824;9.346;2022-10-23T03:56:31;6.20;;;3.70;;
1613;SDS011;800;48.824;9.346;2022-10-23T03:58:57;6.90;;;2.93;;
1613;SDS011;800;48.824;9.346;2022-10-23T04:01:23;7.10;;;2.70;;
1613;SDS011;800;48.824;9.346;2022-10-23T04:03:49;3.03;;;2.60;;
1613;SDS011;800;48.824;9.346;2022-10-23T04:06:14;3.70;;;2.60;;
1613;SDS011;800;48.824;9.346;2022-10-23T04:08:41;3.57;;;2.93;;
1613;SDS011;800;48.824;9.346;2022-10-23T04:11:08;4.10;;;3.03;;
1613;SDS011;800;48.824;9.346;2022-10-23T04:13:33;4.70;;;2.97;;
1613;SDS011;800;48.824;9.346;2022-10-23T04:15:59;4.10;;;3.10;;
1613;SDS011;800;48.824;9.346;2022-10-23T04:18:25;3.73;;;2.87;;
1613;SDS011;800;48.824;9.346;2022-10-23T04:20:50;3.10;;;2.80;;
1613;SDS011;800;48.824;9.346;2022-10-23T04:23:16;4.37;;;2.90;;
1613;SDS011;800;48.824;9.346;2022-10-23T04:25:42;3.00;;;2.80;;
1613;SDS011;800;48.824;9.346;2022-10-23T04:28:07;6.20;;;2.80;;
1613;SDS011;800;48.824;9.346;2022-10-23T04:30:33;10.03;;;2.73;;
1613;SDS011;800;48.824;9.346;2022-10-23T04:32:59;4.40;;;2.47;;
1613;SDS011;800;48.824;9.346;2022-10-23T04:35:24;3.67;;;3.37;;
1613;SDS011;800;48.824;9.346;2022-10-23T04:37:50;4.20;;;2.60;;
1613;SDS011;800;48.824;9.346;2022-10-23T04:40:15;4.33;;;2.30;;
1613;SDS011;800;48.824;9.346;2022-10-23T04:42:41;4.00;;;2.40;;
1613;SDS011;800;48.824;9.346;2022-10-23T04:45:07;2.60;;;2.40;;
1613;SDS011;800;48.824;9.346;2022-10-23T04:47:33;5.50;;;2.70;;
1613;SDS011;800;48.824;9.346;2022-10-23T04:49:58;11.83;;;2.97;;
1613;SDS011;800;48.824;9.346;2022-10-23T04:52:24;3.30;;;2.53;;
1613;SDS011;800;48.824;9.346;2022-10-23T04:54:49;5.67;;;2.80;;
1613;SDS011;800;48.824;9.346;2022-10-23T04:57:15;6.57;;;2.90;;
1613;SDS011;800;48.824;9.346;2022-10-23T04:59:41;6.60;;;3.83;;
1613;SDS011;800;48.824;9.346;2022-10-23T05:02:07;8.30;;;3.77;;
1613;SDS011;800;48.824;9.346;2022-10-23T05:04:32;2.53;;;2.33;;
1613;SDS011;800;48.824;9.346;2022-10-23T05:06:58;2.40;;;2.20;;
1613;SDS011;800;48.824;9.346;2022-10-23T05:09:23;6.13;;;2.57;;
1613;SDS011;800;48.824;9.346;2022-10-23T05:11:49;3.40;;;3.10;;
1613;SDS011;800;48.824;9.346;2022-10-23T05:14:14;5.87;;;2.27;;
1613;SDS011;800;48.824;9.346;2022-10-23T05:16:45;4.67;;;2.60;;
1613;SDS011;800;48.824;9.346;2022-10-23T05:19:20;2.83;;;2.63;;
1613;SDS011;800;48.824;9.346;2022-10-23T05:21:50;4.23;;;2.33;;
1613;SDS011;800;48.824;9.346;2022-10-23T05:24:20;3.33;;;2.50;;
1613;SDS011;800;48.824;9.346;2022-10-23T05:26:46;3.57;;;2.57;;
1613;SDS011;800;48.824;9.346;2022-10-23T05:29:12;3.07;;;2.57;;
1613;SDS011;800;48.824;9.346;2022-10-23T05:31:37;6.70;;;2.70;;
1613;SDS011;800;48.824;9.346;2022-10-23T05:34:03;6.17;;;2.97;;
1613;SDS011;800;48.824;9.346;2022-10-23T05:36:29;4.37;;;2.60;;
1613;SDS011;800;48.824;9.346;2022-10-23T05:38:56;3.77;;;2.63;;
1613;SDS011;800;48.824;9.346;2022-10-23T05:41:22;3.70;;;2.47;;
1613;SDS011;800;48.824;9.346;2022-10-23T05:43:47;5.40;;;2.63;;
1613;SDS011;800;48.824;9.346;2022-10-23T05:46:13;7.10;;;2.77;;
1613;SDS011;800;48.824;9.346;2022-10-23T05:48:38;8.30;;;3.63;;
1613;SDS011;800;48.824;9.346;2022-10-23T05:51:08;6.47;;;2.80;;
1613;SDS011;800;48.824;9.346;2022-10-23T05:53:35;5.00;;;3.70;;
1613;SDS011;800;48.824;9.346;2022-10-23T05:56:07;3.40;;;2.87;;
1613;SDS011;800;48.824;9.346;2022-10-23T05:58:33;4.50;;;2.60;;
1613;SDS011;800;48.824;9.346;2022-10-23T06:00:59;2.40;;;2.30;;
1613;SDS011;800;48.824;9.346;2022-10-23T06:03:29;2.73;;;2.53;;
1613;SDS011;800;48.824;9.346;2022-10-23T06:05:55;7.33;;;2.67;;
1613;SDS011;800;48.824;9.346;2022-10-23T06:08:21;4.13;;;2.83;;
1613;SDS011;800;48.824;9.346;2022-10-23T06:10:48;7.83;;;2.77;;
1613;SDS011;800;48.824;9.346;2022-10-23T06:13:14;5.30;;;2.40;;
1613;SDS011;800;48.824;9.346;2022-10-23T06:15:39;3.70;;;2.23;;
1613;SDS011;800;48.824;9.346;2022-10-23T06:18:05;6.90;;;2.33;;
1613;SDS011;800;48.824;9.346;2022-10-23T06:20:33;6.07;;;2.63;;
1613;SDS011;800;48.824;9.346;2022-10-23T06:23:00;3.60;;;2.70;;
1613;SDS011;800;48.824;9.346;2022-10-23T06:25:25;4.90;;;2.50;;
1613;SDS011;800;48.824;9.346;2022-10-23T06:27:51;5.20;;;2.20;;
1613;SDS011;800;48.824;9.346;2022-10-23T06:30:16;3.20;;;2.43;;
1613;SDS011;800;48.824;9.346;2022-10-23T06:32:42;6.87;;;2.40;;
1613;SDS011;800;48.824;9.346;2022-10-23T06:35:08;11.13;;;2.70;;
1613;SDS011;800;48.824;9.346;2022-10-23T06:37:33;14.13;;;2.90;;
1613;SDS011;800;48.824;9.346;2022-10-23T06:39:59;2.33;;;2.13;;
1613;SDS011;800;48.824;9.346;2022-10-23T06:42:24;10.07;;;3.10;;
1613;SDS011;800;48.824;9.346;2022-10-23T06:44:50;6.90;;;2.70;;
1613;SDS011;800;48.824;9.346;2022-10-23T06:47:15;4.33;;;2.73;;
1613;SDS011;800;48.824;9.346;2022-10-23T06:49:41;8.60;;;3.17;;
1613;SDS011;800;48.824;9.346;2022-10-23T06:52:07;3.20;;;2.40;;
1613;SDS011;800;48.824;9.346;2022-10-23T06:54:32;6.43;;;2.43;;
1613;SDS011;800;48.824;9.346;2022-10-23T06:56:58;2.50;;;2.30;;
1613;SDS011;800;48.824;9.346;2022-10-23T06:59:24;3.60;;;2.80;;
1613;SDS011;800;48.824;9.346;2022-10-23T07:01:49;3.23;;;2.73;;
1613;SDS011;800;48.824;9.346;2022-10-23T07:04:15;5.57;;;2.50;;
1613;SDS011;800;48.824;9.346;2022-10-23T07:06:41;4.83;;;2.53;;
1613;SDS011;800;48.824;9.346;2022-10-23T07:09:07;4.60;;;2.67;;
1613;SDS011;800;48.824;9.346;2022-10-23T07:11:32;2.97;;;2.77;;
1613;SDS011;800;48.824;9.346;2022-10-23T07:13:58;5.17;;;2.17;;
1613;SDS011;800;48.824;9.346;2022-10-23T07:16:24;8.90;;;3.87;;
1613;SDS011;800;48.824;9.346;2022-10-23T07:18:53;5.10;;;2.80;;
1613;SDS011;800;48.824;9.346;2022-10-23T07:21:30;4.30;;;3.63;;
1613;SDS011;800;48.824;9.346;2022-10-23T07:23:58;5.13;;;3.73;;
1613;SDS011;800;48.824;9.346;2022-10-23T07:26:24;3.40;;;3.10;;
1613;SDS011;800;48.824;9.346;2022-10-23T07:28:50;3.40;;;3.10;;
1613;SDS011;800;48.824;9.346;2022-10-23T07:31:19;3.10;;;2.90;;
1613;SDS011;800;48.824;9.346;2022-10-23T07:33:46;2.97;;;2.77;;
1613;SDS011;800;48.824;9.346;2022-10-23T07:36:12;4.80;;;3.17;;
1613;SDS011;800;48.824;9.346;2022-10-23T07:38:37;6.23;;;3.40;;
1613;SDS011;800;48.824;9.346;2022-10-23T07:41:03;6.43;;;3.17;;
1613;SDS011;800;48.824;9.346;2022-10-23T07:43:29;7.43;;;2.87;;
1613;SDS011;800;48.824;9.346;2022-10-23T07:45:55;8.93;;;3.70;;
1613;SDS011;800;48.824;9.346;2022-10-23T07:48:20;7.10;;;3.90;;
1613;SDS011;800;48.824;9.346;2022-10-23T07:50:47;5.30;;;3.77;;
1613;SDS011;800;48.824;9.346;2022-10-23T07:53:21;4.27;;;3.83;;
1613;SDS011;800;48.824;9.346;2022-10-23T07:55:58;6.03;;;3.30;;
1613;SDS011;800;48.824;9.346;2022-10-23T07:58:26;6.90;;;3.60;;
1613;SDS011;800;48.824;9.346;2022-10-23T08:00:56;5.90;;;3.63;;
1613;SDS011;800;48.824;9.346;2022-10-23T08:03:32;8.40;;;3.60;;
1613;SDS011;800;48.824;9.346;2022-10-23T08:05:58;8.40;;;3.63;;
1613;SDS011;800;48.824;9.346;2022-10-23T08:08:24;5.50;;;3.43;;
1613;SDS011;800;48.824;9.346;2022-10-23T08:10:51;4.30;;;2.37;;
1613;SDS011;800;48.824;9.346;2022-10-23T08:13:19;4.23;;;2.10;;
1613;SDS011;800;48.824;9.346;2022-10-23T08:15:46;4.17;;;2.83;;
1613;SDS011;800;48.824;9.346;2022-10-23T08:18:12;3.80;;;2.80;;
1613;SDS011;800;48.824;9.346;2022-10-23T08:20:39;2.70;;;2.50;;
1613;SDS011;800;48.824;9.346;2022-10-23T08:23:06;3.33;;;2.80;;
1613;SDS011;800;48.824;9.346;2022-10-23T08:25:32;4.30;;;3.60;;
1613;SDS011;800;48.824;9.346;2022-10-23T08:27:58;3.13;;;2.77;;
1613;SDS011;800;48.824;9.346;2022-10-23T08:30:25;4.80;;;3.30;;
1613;SDS011;800;48.824;9.346;2022-10-23T08:32:51;5.83;;;3.23;;
1613;SDS011;800;48.824;9.346;2022-10-23T08:35:17;6.20;;;3.13;;
1613;SDS011;800;48.824;9.346;2022-10-23T08:37:42;7.07;;;3.50;;
1613;SDS011;800;48.824;9.346;2022-10-23T08:40:13;4.10;;;2.97;;
1613;SDS011;800;48.824;9.346;2022-10-23T08:42:48;3.63;;;2.97;;
1613;SDS011;800;48.824;9.346;2022-10-23T08:45:44;5.13;;;4.30;;
1613;SDS011;800;48.824;9.346;2022-10-23T08:48:22;4.37;;;3.97;;
1613;SDS011;800;48.824;9.346;2022-10-23T08:50:55;5.73;;;3.60;;
1613;SDS011;800;48.824;9.346;2022-10-23T08:53:33;5.30;;;3.13;;
1613;SDS011;800;48.824;9.346;2022-10-23T08:56:17;6.50;;;3.83;;
1613;SDS011;800;48.824;9.346;2022-10-23T09:02:44;5.23;;;2.40;;
1613;SDS011;800;48.824;9.346;2022-10-23T09:04:50;4.53;;;2.53;;
1613;SDS011;800;48.824;9.346;2022-10-23T09:18:59;4.73;;;2.30;;
1613;SDS011;800;48.824;9.346;2022-10-23T09:21:26;1.90;;;1.70;;
1613;SDS011;800;48.824;9.346;2022-10-23T09:23:52;4.13;;;2.10;;
1613;SDS011;800;48.824;9.346;2022-10-23T09:26:18;2.00;;;1.90;;
1613;SDS011;800;48.824;9.346;2022-10-23T09:29:08;2.37;;;2.00;;
1613;SDS011;800;48.824;9.346;2022-10-23T09:32:03;2.13;;;1.40;;
1613;SDS011;800;48.824;9.346;2022-10-23T09:34:30;1.67;;;1.50;;
1613;SDS011;800;48.824;9.346;2022-10-23T09:36:59;1.30;;;1.20;;
1613;SDS011;800;48.824;9.346;2022-10-23T09:39:31;1.70;;;1.60;;
1613;SDS011;800;48.824;9.346;2022-10-23T09:41:59;6.77;;;2.00;;
1613;SDS011;800;48.824;9.346;2022-10-23T09:44:30;3.53;;;1.47;;
1613;SDS011;800;48.824;9.346;2022-10-23T09:47:07;3.20;;;1.50;;
1613;SDS011;800;48.824;9.346;2022-10-23T09:49:38;1.37;;;1.13;;
1613;SDS011;800;48.824;9.346;2022-10-23T09:54:42;4.30;;;1.47;;
1613;SDS011;800;48.824;9.346;2022-10-23T09:59:53;3.13;;;1.30;;
1613;SDS011;800;48.824;9.346;2022-10-23T10:02:31;4.07;;;1.10;;
1613;SDS011;800;48.824;9.346;2022-10-23T10:05:10;3.30;;;1.40;;
1613;SDS011;800;48.824;9.346;2022-10-23T10:10:38;1.30;;;1.00;;
1613;SDS011;800;48.824;9.346;2022-10-23T10:13:25;2.57;;;1.17;;
1613;SDS011;800;48.824;9.346;2022-10-23T10:18:27;1.30;;;1.20;;
1613;SDS011;800;48.824;9.346;2022-10-23T10:21:10;2.30;;;0.83;;
1613;SDS011;800;48.824;9.346;2022-10-23T10:23:46;2.67;;;1.20;;
1613;SDS011;800;48.824;9.346;2022-10-23T10:26:33;1.30;;;1.20;;
1613;SDS011;800;48.824;9.346;2022-10-23T10:34:42;1.40;;;1.30;;
1613;SDS011;800;48.824;9.346;2022-10-23T10:37:28;1.23;;;1.00;;
1613;SDS011;800;48.824;9.346;2022-10-23T10:45:33;3.23;;;1.27;;
1613;SDS011;800;48.824;9.346;2022-10-23T10:51:28;1.10;;;0.90;;
1613;SDS011;800;48.824;9.346;2022-10-23T10:54:05;1.10;;;0.90;;
1613;SDS011;800;48.824;9.346;2022-10-23T10:56:36;1.80;;;1.20;;
1613;SDS011;800;48.824;9.346;2022-10-23T10:59:09;4.77;;;1.30;;
1613;SDS011;800;48.824;9.346;2022-10-23T11:01:41;1.47;;;1.10;;
1613;SDS011;800;48.824;9.346;2022-10-23T11:06:46;2.13;;;1.47;;
1613;SDS011;800;48.824;9.346;2022-10-23T11:09:19;2.53;;;1.57;;
1613;SDS011;800;48.824;9.346;2022-10-23T11:11:48;1.03;;;1.00;;
1613;SDS011;800;48.824;9.346;2022-10-23T11:14:14;1.23;;;1.13;;
1613;SDS011;800;48.824;9.346;2022-10-23T11:16:47;2.90;;;1.00;;
1613;SDS011;800;48.824;9.346;2022-10-23T11:19:17;2.10;;;1.63;;
1613;SDS011;800;48.824;9.346;2022-10-23T11:24:30;3.43;;;1.20;;
1613;SDS011;800;48.824;9.346;2022-10-23T11:30:12;2.27;;;1.20;;
1613;SDS011;800;48.824;9.346;2022-10-23T11:38:16;1.33;;;1.20;;
1613;SDS011;800;48.824;9.346;2022-10-23T11:40:50;1.50;;;1.40;;
1613;SDS011;800;48.824;9.346;2022-10-23T11:43:28;1.30;;;1.17;;
1613;SDS011;800;48.824;9.346;2022-10-23T11:45:58;1.10;;;1.03;;
1613;SDS011;800;48.824;9.346;2022-10-23T11:48:42;1.27;;;1.17;;
1613;SDS011;800;48.824;9.346;2022-10-23T11:51:25;1.17;;;1.10;;
1613;SDS011;800;48.824;9.346;2022-10-23T11:56:37;2.97;;;1.13;;
1613;SDS011;800;48.824;9.346;2022-10-23T11:59:29;1.40;;;1.17;;
1613;SDS011;800;48.824;9.346;2022-10-23T12:01:58;1.67;;;1.37;;
1613;SDS011;800;48.824;9.346;2022-10-23T12:04:29;2.47;;;1.37;;
1613;SDS011;800;48.824;9.346;2022-10-23T12:07:00;3.37;;;1.50;;
1613;SDS011;800;48.824;9.346;2022-10-23T12:09:38;1.90;;;1.30;;
1613;SDS011;800;48.824;9.346;2022-10-23T12:14:41;1.70;;;1.37;;
1613;SDS011;800;48.824;9.346;2022-10-23T12:19:51;2.07;;;1.40;;
1613;SDS011;800;48.824;9.346;2022-10-23T12:22:19;3.60;;;1.97;;
1613;SDS011;800;48.824;9.346;2022-10-23T12:24:54;1.30;;;1.20;;
1613;SDS011;800;48.824;9.346;2022-10-23T12:27:30;1.47;;;1.30;;
1613;SDS011;800;48.824;9.346;2022-10-23T12:35:41;3.40;;;1.50;;
1613;SDS011;800;48.824;9.346;2022-10-23T12:40:52;2.83;;;2.20;;
1613;SDS011;800;48.824;9.346;2022-10-23T12:43:25;4.43;;;1.63;;
1613;SDS011;800;48.824;9.346;2022-10-23T12:45:54;1.43;;;1.27;;
1613;SDS011;800;48.824;9.346;2022-10-23T12:48:21;1.40;;;1.30;;
1613;SDS011;800;48.824;9.346;2022-10-23T12:50:49;4.30;;;1.93;;
1613;SDS011;800;48.824;9.346;2022-10-23T12:53:17;2.20;;;1.33;;
1613;SDS011;800;48.824;9.346;2022-10-23T12:55:48;1.47;;;1.37;;
1613;SDS011;800;48.824;9.346;2022-10-23T13:00:56;1.83;;;1.47;;
1613;SDS011;800;48.824;9.346;2022-10-23T13:03:28;2.50;;;1.60;;
1613;SDS011;800;48.824;9.346;2022-10-23T13:05:56;2.00;;;1.80;;
1613;SDS011;800;48.824;9.346;2022-10-23T13:08:26;3.50;;;2.27;;
1613;SDS011;800;48.824;9.346;2022-10-23T13:10:57;3.87;;;2.10;;
1613;SDS011;800;48.824;9.346;2022-10-23T13:13:23;2.00;;;1.90;;
1613;SDS011;800;48.824;9.346;2022-10-23T13:15:49;2.20;;;1.67;;
1613;SDS011;800;48.824;9.346;2022-10-23T13:18:16;3.10;;;1.63;;
1613;SDS011;800;48.824;9.346;2022-10-23T13:23:32;2.57;;;1.53;;
1613;SDS011;800;48.824;9.346;2022-10-23T13:26:03;1.50;;;1.40;;
1613;SDS011;800;48.824;9.346;2022-10-23T13:28:47;2.60;;;1.33;;
1613;SDS011;800;48.824;9.346;2022-10-23T13:36:31;2.20;;;2.00;;
1613;SDS011;800;48.824;9.346;2022-10-23T13:39:09;1.30;;;1.20;;
1613;SDS011;800;48.824;9.346;2022-10-23T13:41:39;3.53;;;1.83;;
1613;SDS011;800;48.824;9.346;2022-10-23T13:44:11;1.57;;;1.47;;
1613;SDS011;800;48.824;9.346;2022-10-23T13:46:38;2.60;;;1.73;;
1613;SDS011;800;48.824;9.346;2022-10-23T13:49:04;7.40;;;1.50;;
1613;SDS011;800;48.824;9.346;2022-10-23T13:51:41;3.00;;;1.70;;
1613;SDS011;800;48.824;9.346;2022-10-23T13:54:20;2.30;;;1.60;;
1613;SDS011;800;48.824;9.346;2022-10-23T13:56:47;1.90;;;1.30;;
1613;SDS011;800;48.824;9.346;2022-10-23T13:59:13;1.93;;;1.20;;
1613;SDS011;800;48.824;9.346;2022-10-23T14:01:39;2.37;;;1.40;;
1613;SDS011;800;48.824;9.346;2022-10-23T14:04:06;2.13;;;1.83;;
1613;SDS011;800;48.824;9.346;2022-10-23T14:06:32;1.63;;;1.53;;
1613;SDS011;800;48.824;9.346;2022-10-23T14:08:58;2.13;;;1.70;;
1613;SDS011;800;48.824;9.346;2022-10-23T14:11:24;3.10;;;2.67;;
1613;SDS011;800;48.824;9.346;2022-10-23T14:13:50;4.33;;;3.00;;
1613;SDS011;800;48.824;9.346;2022-10-23T14:16:17;4.13;;;2.20;;
1613;SDS011;800;48.824;9.346;2022-10-23T14:18:43;5.03;;;1.93;;
1613;SDS011;800;48.824;9.346;2022-10-23T14:21:10;3.83;;;2.07;;
1613;SDS011;800;48.824;9.346;2022-10-23T14:23:37;1.80;;;1.70;;
1613;SDS011;800;48.824;9.346;2022-10-23T14:26:04;2.63;;;2.13;;
1613;SDS011;800;48.824;9.346;2022-10-23T14:28:31;2.10;;;1.90;;
1613;SDS011;800;48.824;9.346;2022-10-23T14:31:02;4.40;;;2.40;;
1613;SDS011;800;48.824;9.346;2022-10-23T14:33:28;4.20;;;3.27;;
1613;SDS011;800;48.824;9.346;2022-10-23T14:35:54;4.33;;;3.33;;
1613;SDS011;800;48.824;9.346;2022-10-23T14:38:20;3.50;;;3.03;;
1613;SDS011;800;48.824;9.346;2022-10-23T14:40:45;3.03;;;2.50;;
1613;SDS011;800;48.824;9.346;2022-10-23T14:43:11;2.83;;;2.50;;
1613;SDS011;800;48.824;9.346;2022-10-23T14:45:36;2.87;;;2.57;;
1613;SDS011;800;48.824;9.346;2022-10-23T14:48:02;2.47;;;2.00;;
1613;SDS011;800;48.824;9.346;2022-10-23T14:50:29;3.40;;;2.37;;
1613;SDS011;800;48.824;9.346;2022-10-23T14:52:56;6.03;;;3.43;;
1613;SDS011;800;48.824;9.346;2022-10-23T14:55:21;6.80;;;6.10;;
1613;SDS011;800;48.824;9.346;2022-10-23T14:57:47;7.93;;;7.17;;
1613;SDS011;800;48.824;9.346;2022-10-23T15:00:18;7.93;;;7.13;;
1613;SDS011;800;48.824;9.346;2022-10-23T15:02:43;6.67;;;5.63;;
1613;SDS011;800;48.824;9.346;2022-10-23T15:05:09;10.20;;;7.67;;
1613;SDS011;800;48.824;9.346;2022-10-23T15:07:35;7.47;;;6.70;;
1613;SDS011;800;48.824;9.346;2022-10-23T15:10:00;8.63;;;5.90;;
1613;SDS011;800;48.824;9.346;2022-10-23T15:12:27;9.00;;;7.37;;
1613;SDS011;800;48.824;9.346;2022-10-23T15:14:53;7.80;;;6.30;;
1613;SDS011;800;48.824;9.346;2022-10-23T15:17:19;6.80;;;6.20;;
1613;SDS011;800;48.824;9.346;2022-10-23T15:19:44;5.33;;;3.93;;
1613;SDS011;800;48.824;9.346;2022-10-23T15:22:10;7.90;;;4.07;;
1613;SDS011;800;48.824;9.346;2022-10-23T15:24:35;3.70;;;3.30;;
1613;SDS011;800;48.824;9.346;2022-10-23T15:27:01;6.23;;;2.67;;
1613;SDS011;800;48.824;9.346;2022-10-23T15:29:27;3.27;;;2.40;;
1613;SDS011;800;48.824;9.346;2022-10-23T15:32:01;7.47;;;2.97;;
1613;SDS011;800;48.824;9.346;2022-10-23T15:34:29;4.23;;;2.90;;
1613;SDS011;800;48.824;9.346;2022-10-23T15:36:56;5.00;;;3.10;;
1613;SDS011;800;48.824;9.346;2022-10-23T15:39:23;3.53;;;3.13;;
1613;SDS011;800;48.824;9.346;2022-10-23T15:41:52;6.03;;;4.10;;
1613;SDS011;800;48.824;9.346;2022-10-23T15:44:19;9.97;;;4.30;;
1613;SDS011;800;48.824;9.346;2022-10-23T15:46:46;7.00;;;2.80;;
1613;SDS011;800;48.824;9.346;2022-10-23T15:49:12;3.47;;;3.17;;
1613;SDS011;800;48.824;9.346;2022-10-23T15:51:39;4.00;;;2.57;;
1613;SDS011;800;48.824;9.346;2022-10-23T15:54:05;6.30;;;2.80;;
1613;SDS011;800;48.824;9.346;2022-10-23T15:56:33;3.13;;;2.50;;
1613;SDS011;800;48.824;9.346;2022-10-23T15:58:59;6.03;;;2.77;;
1613;SDS011;800;48.824;9.346;2022-10-23T16:01:25;5.80;;;2.73;;
1613;SDS011;800;48.824;9.346;2022-10-23T16:03:51;2.53;;;2.10;;
1613;SDS011;800;48.824;9.346;2022-10-23T16:06:18;11.60;;;2.43;;
1613;SDS011;800;48.824;9.346;2022-10-23T16:08:44;2.33;;;2.13;;
1613;SDS011;800;48.824;9.346;2022-10-23T16:11:18;8.57;;;2.43;;
1613;SDS011;800;48.824;9.346;2022-10-23T16:13:45;2.40;;;2.03;;
1613;SDS011;800;48.824;9.346;2022-10-23T16:16:11;3.67;;;1.80;;
1613;SDS011;800;48.824;9.346;2022-10-23T16:18:38;3.87;;;2.40;;
1613;SDS011;800;48.824;9.346;2022-10-23T16:21:04;2.20;;;2.00;;
1613;SDS011;800;48.824;9.346;2022-10-23T16:23:30;2.30;;;2.10;;
1613;SDS011;800;48.824;9.346;2022-10-23T16:26:00;5.50;;;2.40;;
1613;SDS011;800;48.824;9.346;2022-10-23T16:28:30;7.50;;;2.30;;
1613;SDS011;800;48.824;9.346;2022-10-23T16:30:55;5.30;;;2.43;;
1613;SDS011;800;48.824;9.346;2022-10-23T16:33:21;3.20;;;2.90;;
1613;SDS011;800;48.824;9.346;2022-10-23T16:35:46;4.47;;;2.30;;
1613;SDS011;800;48.824;9.346;2022-10-23T16:38:12;3.50;;;2.10;;
1613;SDS011;800;48.824;9.346;2022-10-23T16:40:38;3.00;;;2.03;;
1613;SDS011;800;48.824;9.346;2022-10-23T16:43:03;3.10;;;2.20;;
1613;SDS011;800;48.824;9.346;2022-10-23T16:45:29;2.60;;;1.83;;
1613;SDS011;800;48.824;9.346;2022-10-23T16:47:54;1.70;;;1.60;;
1613;SDS011;800;48.824;9.346;2022-10-23T16:50:20;3.87;;;1.83;;
1613;SDS011;800;48.824;9.346;2022-10-23T16:52:47;8.23;;;3.07;;
1613;SDS011;800;48.824;9.346;2022-10-23T16:55:12;2.63;;;2.43;;
1613;SDS011;800;48.824;9.346;2022-10-23T16:57:38;6.27;;;1.87;;
1613;SDS011;800;48.824;9.346;2022-10-23T17:00:04;2.80;;;2.07;;
1613;SDS011;800;48.824;9.346;2022-10-23T17:02:30;4.40;;;2.07;;
1613;SDS011;800;48.824;9.346;2022-10-23T17:04:56;2.70;;;2.00;;
1613;SDS011;800;48.824;9.346;2022-10-23T17:07:22;2.53;;;1.83;;
1613;SDS011;800;48.824;9.346;2022-10-23T17:09:48;2.40;;;2.00;;
1613;SDS011;800;48.824;9.346;2022-10-23T17:12:13;2.93;;;2.00;;
1613;SDS011;800;48.824;9.346;2022-10-23T17:14:39;2.87;;;2.30;;
1613;SDS011;800;48.824;9.346;2022-10-23T17:17:05;3.10;;;2.40;;
1613;SDS011;800;48.824;9.346;2022-10-23T17:19:33;2.07;;;1.73;;
1613;SDS011;800;48.824;9.346;2022-10-23T17:22:00;6.20;;;2.77;;
1613;SDS011;800;48.824;9.346;2022-10-23T17:24:26;2.77;;;2.20;;
1613;SDS011;800;48.824;9.346;2022-10-23T17:26:52;3.43;;;2.30;;
1613;SDS011;800;48.824;9.346;2022-10-23T17:29:18;6.13;;;2.20;;
1613;SDS011;800;48.824;9.346;2022-10-23T17:31:45;3.80;;;2.33;;
1613;SDS011;800;48.824;9.346;2022-10-23T17:34:14;3.53;;;2.60;;